Bayeux, Brazil
Current Conditions -  °F | °C
As of 8:00 PM on Friday 28 Nov 2014 (Local Time) from SBJP Reporting Station
Broken Clouds Broken Clouds  
Wind Chill: 77°   Ceiling: 2000
Heat Index: 79°   Visibility: 6mi
Dew Point: 70°   Wind: 8mph
Humidity: 78%   Direction: 120°ESE
Pressure: 29.94"   Gusts: NA
Location:  7.13°S, 34.93°W
Report Text: SBJP 282300Z 12007KT 9999 BKN020 25/21 Q1014
Loading
Personal Weather Stations






























Interactive Weather Map New forecast layout! Learn more

10-Day Weather Forecast

Advertisements
Track Severe Weather on mobile